Time;durP1;ratioP1;P1;durP2;ratioP2;P2;SDS_P1;SDS_P2;PMS_P1;PMS_P2;Temp;Humidity;BMP_temperature;BMP_pressure;BME280_temperature;BME280_humidity;BME280_pressure;Samples;Min_cycle;Max_cycle;Signal;HPM_P1;HPM_P2
2023/04/02 00:02:20;;;;;;;4.13;2.17;;;;;;;;;;4988592;28;20105;-55
2023/04/02 00:05:06;;;;;;;6.57;3.08;;;;;;;;;;4986327;28;20136;-51
2023/04/02 00:07:40;;;;;;;5.63;2.45;;;;;;;;;;4986224;28;20082;-52
2023/04/02 00:10:25;;;;;;;6.38;2.45;;;;;;;;;;4990013;28;20510;-56
2023/04/02 00:13:06;;;;;;;6.82;2.70;;;;;;;;;;4988703;28;20057;-55
2023/04/02 00:15:34;;;;;;;6.50;2.67;;;;;;;;;;4984694;28;20127;-57
2023/04/02 00:18:12;;;;;;;7.95;2.60;;;;;;;;;;4986739;28;20068;-50
2023/04/02 00:20:48;;;;;;;6.78;2.92;;;;;;;;;;4987875;28;20082;-49
2023/04/02 00:23:22;;;;;;;6.10;2.58;;;;;;;;;;4986356;28;20050;-58
2023/04/02 00:25:49;;;;;;;;;;;;;;;;;;4992531;28;20417;-57
2023/04/02 00:28:20;;;;;;;5.40;2.28;;;;;;;;;;4987869;28;20432;-55
2023/04/02 00:30:55;;;;;;;7.13;3.30;;;;;;;;;;4983717;28;20053;-59
2023/04/02 00:33:25;;;;;;;7.32;2.83;;;;;;;;;;4983865;28;20421;-55
2023/04/02 00:35:59;;;;;;;10.32;3.20;;;;;;;;;;4985279;28;20497;-58
2023/04/02 00:38:26;;;;;;;;;;;;;;;;;;4991122;28;20053;-53
2023/04/02 00:40:55;;;;;;;6.80;2.75;;;;;;;;;;4988503;28;20012;-50
2023/04/02 00:43:38;;;;;;;7.40;2.83;;;;;;;;;;4990428;28;20177;-53
2023/04/02 00:46:12;;;;;;;13.98;3.30;;;;;;;;;;4984227;28;20062;-54
2023/04/02 00:48:53;;;;;;;9.45;3.90;;;;;;;;;;4987917;28;20057;-53
2023/04/02 00:51:26;;;;;;;10.13;3.70;;;;;;;;;;4988222;28;20193;-54
2023/04/02 00:54:03;;;;;;;8.27;4.07;;;;;;;;;;4987791;28;20050;-50
2023/04/02 00:56:37;;;;;;;9.88;3.33;;;;;;;;;;4987941;28;20054;-48
2023/04/02 00:59:19;;;;;;;5.10;2.80;;;;;;;;;;4985966;28;20056;-50
2023/04/02 01:01:53;;;;;;;5.90;2.47;;;;;;;;;;4988060;28;20048;-53
2023/04/02 01:04:30;;;;;;;5.32;2.35;;;;;;;;;;4982867;28;20132;-55
2023/04/02 01:06:58;;;;;;;4.40;2.07;;;;;;;;;;4985064;28;20168;-46
2023/04/02 01:09:47;;;;;;;8.82;3.42;;;;;;;;;;4986756;28;20593;-46
2023/04/02 01:12:23;;;;;;;6.33;2.60;;;;;;;;;;4984541;28;20052;-48
2023/04/02 01:15:05;;;;;;;8.02;2.88;;;;;;;;;;4983078;28;20556;-44
2023/04/02 01:17:38;;;;;;;6.82;3.30;;;;;;;;;;4981567;28;20564;-58
2023/04/02 01:20:21;;;;;;;11.27;3.00;;;;;;;;;;4983302;28;20045;-44
2023/04/02 01:23:01;;;;;;;4.82;2.45;;;;;;;;;;4981556;28;20058;-46
2023/04/02 01:25:40;;;;;;;6.57;2.90;;;;;;;;;;4988240;28;20077;-45
2023/04/02 01:28:25;;;;;;;6.97;2.90;;;;;;;;;;4982993;28;20137;-47
2023/04/02 01:31:01;;;;;;;7.30;2.97;;;;;;;;;;4987119;28;20538;-47
2023/04/02 01:33:35;;;;;;;9.90;3.33;;;;;;;;;;4988646;28;20054;-44
2023/04/02 01:36:23;;;;;;;7.57;3.10;;;;;;;;;;4983924;28;20056;-45
2023/04/02 01:39:17;;;;;;;6.57;2.50;;;;;;;;;;4982608;28;20061;-45
2023/04/02 01:42:00;;;;;;;6.73;2.60;;;;;;;;;;4985931;28;20532;-47
2023/04/02 01:44:38;;;;;;;5.77;2.80;;;;;;;;;;4985615;28;20129;-48
2023/04/02 01:47:07;;;;;;;7.07;2.93;;;;;;;;;;4979011;28;20050;-46
2023/04/02 01:49:44;;;;;;;6.80;2.92;;;;;;;;;;4989584;28;20494;-50
2023/04/02 01:52:25;;;;;;;6.95;2.80;;;;;;;;;;4981524;28;20100;-46
2023/04/02 01:54:52;;;;;;;5.00;2.43;;;;;;;;;;4982514;28;20058;-48
2023/04/02 01:57:27;;;;;;;8.87;2.77;;;;;;;;;;4983900;28;20065;-52
2023/04/02 01:59:54;;;;;;;6.20;2.60;;;;;;;;;;4983500;28;20136;-48
2023/04/02 02:02:29;;;;;;;7.30;3.37;;;;;;;;;;4988960;28;20054;-54
2023/04/02 02:04:57;;;;;;;9.20;3.17;;;;;;;;;;4988371;28;20145;-55
2023/04/02 02:07:24;;;;;;;7.27;2.67;;;;;;;;;;4982763;28;20054;-55
2023/04/02 02:09:59;;;;;;;7.40;3.30;;;;;;;;;;4987641;28;20059;-52
2023/04/02 02:12:26;;;;;;;13.45;3.65;;;;;;;;;;4987195;28;20089;-55
2023/04/02 02:15:00;;;;;;;5.60;2.80;;;;;;;;;;4984027;28;20050;-62
2023/04/02 02:17:33;;;;;;;11.18;3.20;;;;;;;;;;4984516;28;20056;-47
2023/04/02 02:20:14;;;;;;;10.93;3.97;;;;;;;;;;4993064;28;20462;-52
2023/04/02 02:22:48;;;;;;;7.83;3.30;;;;;;;;;;4992160;28;21916;-49
2023/04/02 02:25:25;;;;;;;9.90;3.07;;;;;;;;;;4992333;28;20422;-45
2023/04/02 02:28:01;;;;;;;6.03;3.00;;;;;;;;;;4969547;28;20054;-47
2023/04/02 02:30:38;;;;;;;7.47;3.30;;;;;;;;;;4991125;28;20137;-62
2023/04/02 02:33:13;;;;;;;9.27;3.90;;;;;;;;;;4987156;28;20065;-62
2023/04/02 02:36:01;;;;;;;7.37;3.40;;;;;;;;;;4987128;28;20090;-62
2023/04/02 02:38:55;;;;;;;9.38;3.85;;;;;;;;;;4988226;28;20058;-62
2023/04/02 02:41:33;;;;;;;6.93;2.77;;;;;;;;;;4992750;28;20080;-51
2023/04/02 02:44:10;;;;;;;9.47;2.97;;;;;;;;;;4992279;28;20301;-59
2023/04/02 02:46:46;;;;;;;7.32;3.25;;;;;;;;;;4990696;28;20057;-60
2023/04/02 02:49:15;;;;;;;11.70;3.57;;;;;;;;;;4990676;28;20550;-60
2023/04/02 02:51:53;;;;;;;11.67;3.20;;;;;;;;;;4985258;28;20085;-60
2023/04/02 02:54:21;;;;;;;10.43;4.00;;;;;;;;;;4990967;28;20137;-59
2023/04/02 02:56:48;;;;;;;;;;;;;;;;;;4989254;28;20570;-58
2023/04/02 02:59:22;;;;;;;8.93;3.60;;;;;;;;;;4990597;28;19925;-54
2023/04/02 03:01:57;;;;;;;8.60;3.20;;;;;;;;;;4990649;28;20561;-51
2023/04/02 03:04:34;;;;;;;7.43;3.07;;;;;;;;;;4987521;28;20053;-52
2023/04/02 03:07:15;;;;;;;8.80;3.53;;;;;;;;;;4984200;28;21617;-53
2023/04/02 03:09:58;;;;;;;8.43;3.27;;;;;;;;;;4989411;28;20058;-53
2023/04/02 03:12:48;;;;;;;10.47;3.53;;;;;;;;;;4986682;28;20050;-61
2023/04/02 03:15:22;;;;;;;8.53;3.90;;;;;;;;;;4991441;28;20054;-61
2023/04/02 03:18:11;;;;;;;7.73;2.97;;;;;;;;;;4987241;28;20919;-61
2023/04/02 03:20:56;;;;;;;10.50;3.47;;;;;;;;;;4987387;28;20805;-63
2023/04/02 03:23:33;;;;;;;9.87;3.80;;;;;;;;;;4989991;28;20141;-62
2023/04/02 03:26:03;;;;;;;10.10;3.80;;;;;;;;;;4986434;28;20046;-61
2023/04/02 03:28:43;;;;;;;7.25;2.47;;;;;;;;;;4972826;28;20594;-55
2023/04/02 03:31:16;;;;;;;8.70;3.90;;;;;;;;;;4985474;28;20061;-51
2023/04/02 03:33:52;;;;;;;11.40;3.60;;;;;;;;;;4984780;28;20054;-53
2023/04/02 03:36:24;;;;;;;9.00;3.70;;;;;;;;;;4984326;28;20061;-49
2023/04/02 03:38:57;;;;;;;;;;;;;;;;;;4985840;28;20089;-49
2023/04/02 03:41:45;;;;;;;8.10;3.60;;;;;;;;;;4987579;28;20413;-51
2023/04/02 03:44:29;;;;;;;7.67;3.90;;;;;;;;;;4990312;28;20137;-55
2023/04/02 03:46:58;;;;;;;10.73;3.80;;;;;;;;;;4986074;28;20372;-50
2023/04/02 03:49:45;;;;;;;10.17;4.23;;;;;;;;;;4986253;28;20096;-53
2023/04/02 03:52:13;;;;;;;11.13;3.40;;;;;;;;;;4985446;28;20169;-56
2023/04/02 03:54:48;;;;;;;8.10;3.17;;;;;;;;;;4990506;28;20064;-54
2023/04/02 03:57:38;;;;;;;7.63;3.43;;;;;;;;;;4982997;28;20076;-63
2023/04/02 04:00:15;;;;;;;9.97;3.90;;;;;;;;;;4985678;28;20064;-62
2023/04/02 04:02:44;;;;;;;8.00;3.33;;;;;;;;;;4987422;28;20065;-61
2023/04/02 04:05:28;;;;;;;7.03;3.27;;;;;;;;;;4986930;28;20141;-62
2023/04/02 04:07:59;;;;;;;9.33;4.13;;;;;;;;;;4969603;28;20046;-62
2023/04/02 04:10:34;;;;;;;12.50;3.70;;;;;;;;;;4986389;28;20082;-62
2023/04/02 04:13:04;;;;;;;10.73;4.10;;;;;;;;;;4987703;28;20207;-62
2023/04/02 04:15:34;;;;;;;9.77;4.53;;;;;;;;;;4987128;28;20145;-62
2023/04/02 04:18:23;;;;;;;7.13;3.97;;;;;;;;;;4989903;28;20056;-62
2023/04/02 04:21:16;;;;;;;7.27;3.47;;;;;;;;;;4696694;28;8293135;-62
2023/04/02 04:23:51;;;;;;;6.90;3.40;;;;;;;;;;4986156;28;20324;-61
2023/04/02 04:26:34;;;;;;;11.23;3.83;;;;;;;;;;4990574;28;20141;-59
2023/04/02 04:29:14;;;;;;;13.47;3.80;;;;;;;;;;4985171;28;20478;-50
2023/04/02 04:31:53;;;;;;;11.00;3.85;;;;;;;;;;4989772;28;20057;-48
2023/04/02 04:34:24;;;;;;;7.43;3.73;;;;;;;;;;4986260;28;20054;-49
2023/04/02 04:37:06;;;;;;;13.67;3.80;;;;;;;;;;4981648;28;20149;-48
2023/04/02 04:39:41;;;;;;;11.23;3.70;;;;;;;;;;4988181;28;20074;-48
2023/04/02 04:42:20;;;;;;;9.73;3.37;;;;;;;;;;4985536;28;20074;-55
2023/04/02 04:45:00;;;;;;;11.37;3.67;;;;;;;;;;4988413;28;20089;-62
2023/04/02 04:47:36;;;;;;;9.10;3.50;;;;;;;;;;4989989;28;20088;-62
2023/04/02 04:50:11;;;;;;;7.77;4.13;;;;;;;;;;4986460;28;20050;-62
2023/04/02 04:52:45;;;;;;;8.77;3.83;;;;;;;;;;4986382;28;20062;-62
2023/04/02 04:55:12;;;;;;;;;;;;;;;;;;4986751;28;20593;-62
2023/04/02 04:57:48;;;;;;;10.33;3.63;;;;;;;;;;4984236;28;19925;-62
2023/04/02 05:00:24;;;;;;;9.23;3.70;;;;;;;;;;4982009;28;20061;-62
2023/04/02 05:03:20;;;;;;;11.93;4.00;;;;;;;;;;4982405;28;20144;-58
2023/04/02 05:05:48;;;;;;;10.57;3.87;;;;;;;;;;4982021;28;20058;-59
2023/04/02 05:08:26;;;;;;;11.53;3.70;;;;;;;;;;4987959;28;20064;-58
2023/04/02 05:11:07;;;;;;;10.63;3.93;;;;;;;;;;4967787;28;20057;-58
2023/04/02 05:13:52;;;;;;;11.10;4.15;;;;;;;;;;4981653;28;20058;-57
2023/04/02 05:16:28;;;;;;;9.10;3.83;;;;;;;;;;4987902;28;20104;-62
2023/04/02 05:19:05;;;;;;;9.03;4.03;;;;;;;;;;4983598;28;20101;-60
2023/04/02 05:21:44;;;;;;;10.10;3.97;;;;;;;;;;4980224;28;20066;-62
2023/04/02 05:24:38;;;;;;;11.10;4.73;;;;;;;;;;4976665;28;20524;-62
2023/04/02 05:27:12;;;;;;;8.37;3.77;;;;;;;;;;4986315;28;20069;-62
2023/04/02 05:29:50;;;;;;;10.67;3.70;;;;;;;;;;4978240;28;20553;-51
2023/04/02 05:32:21;;;;;;;11.97;3.80;;;;;;;;;;4980154;28;20515;-53
2023/04/02 05:34:55;;;;;;;10.43;3.97;;;;;;;;;;4982417;28;20054;-52
2023/04/02 05:37:24;;;;;;;10.63;4.00;;;;;;;;;;4981481;28;20133;-53
2023/04/02 05:40:00;;;;;;;11.00;4.50;;;;;;;;;;4984512;28;20661;-52
2023/04/02 05:42:28;;;;;;;9.87;4.30;;;;;;;;;;4990232;28;20046;-54
2023/04/02 05:45:21;;;;;;;14.37;4.10;;;;;;;;;;4986201;28;20050;-62
2023/04/02 05:47:51;;;;;;;10.40;4.40;;;;;;;;;;4990497;28;20050;-65
2023/04/02 05:50:29;;;;;;;11.83;4.30;;;;;;;;;;4991609;28;20054;-62
2023/04/02 05:53:07;;;;;;;11.90;4.20;;;;;;;;;;4987890;28;20124;-63
2023/04/02 05:55:59;;;;;;;14.63;4.37;;;;;;;;;;4981651;28;20066;-63
2023/04/02 05:58:52;;;;;;;14.40;5.23;;;;;;;;;;4983950;28;20580;-62
2023/04/02 06:01:30;;;;;;;13.23;4.32;;;;;;;;;;4972507;28;20058;-62
2023/04/02 06:04:00;;;;;;;12.02;4.28;;;;;;;;;;4987285;28;20057;-63
2023/04/02 06:06:43;;;;;;;11.50;4.15;;;;;;;;;;4972124;28;20053;-62
2023/04/02 06:09:15;;;;;;;13.68;4.28;;;;;;;;;;4989336;28;20254;-62
2023/04/02 06:11:51;;;;;;;11.20;3.90;;;;;;;;;;4985463;28;20082;-63
2023/04/02 06:14:18;;;;;;;12.65;4.90;;;;;;;;;;4979590;28;20240;-62
2023/04/02 06:16:52;;;;;;;10.82;3.90;;;;;;;;;;4987620;28;20051;-56
2023/04/02 06:19:22;;;;;;;8.10;4.32;;;;;;;;;;4973076;28;20150;-52
2023/04/02 06:22:04;;;;;;;11.40;4.70;;;;;;;;;;4987380;28;20070;-62
2023/04/02 06:24:32;;;;;;;15.30;5.55;;;;;;;;;;4987676;28;20046;-62
2023/04/02 06:27:06;;;;;;;10.85;4.68;;;;;;;;;;4984831;28;20050;-61
2023/04/02 06:29:38;;;;;;;11.00;4.43;;;;;;;;;;4992707;28;20148;-62
2023/04/02 06:32:07;;;;;;;12.52;5.30;;;;;;;;;;4980224;28;20125;-62
2023/04/02 06:34:41;;;;;;;10.82;4.95;;;;;;;;;;4977919;28;20192;-63
2023/04/02 06:37:18;;;;;;;10.90;4.80;;;;;;;;;;4990009;28;20062;-52
2023/04/02 06:39:45;;;;;;;9.65;4.60;;;;;;;;;;4986180;28;20050;-54
2023/04/02 06:42:21;;;;;;;10.85;4.82;;;;;;;;;;4994187;28;20525;-56
2023/04/02 06:44:49;;;;;;;11.38;5.15;;;;;;;;;;4988893;28;20153;-58
2023/04/02 06:47:16;;;;;;;14.05;4.57;;;;;;;;;;4987875;28;20123;-57
2023/04/02 06:49:54;;;;;;;13.60;5.55;;;;;;;;;;4983276;28;20585;-56
2023/04/02 06:52:44;;;;;;;10.27;5.07;;;;;;;;;;4986428;28;20181;-56
2023/04/02 06:55:37;;;;;;;11.48;5.28;;;;;;;;;;4978733;28;20055;-60
2023/04/02 06:58:12;;;;;;;14.00;5.22;;;;;;;;;;4991670;28;20049;-65
2023/04/02 07:00:50;;;;;;;17.15;4.90;;;;;;;;;;4984616;28;20050;-65
2023/04/02 07:03:24;;;;;;;13.05;5.82;;;;;;;;;;4990008;28;20716;-66
2023/04/02 07:05:51;;;;;;;11.43;4.70;;;;;;;;;;4992960;28;20069;-65
2023/04/02 07:08:25;;;;;;;13.27;6.07;;;;;;;;;;4990446;28;20062;-64
2023/04/02 07:10:52;;;;;;;16.50;5.18;;;;;;;;;;4990644;28;20598;-65
2023/04/02 07:13:20;;;;;;;12.15;5.40;;;;;;;;;;4991413;28;20582;-58
2023/04/02 07:15:55;;;;;;;10.15;4.78;;;;;;;;;;4988163;28;20061;-48
2023/04/02 07:18:23;;;;;;;10.07;4.97;;;;;;;;;;4988840;28;20054;-51
2023/04/02 07:20:50;;;;;;;10.55;4.80;;;;;;;;;;4991673;28;20065;-51
2023/04/02 07:23:31;;;;;;;13.05;4.85;;;;;;;;;;4990396;28;20425;-53
2023/04/02 07:26:00;;;;;;;7.47;3.95;;;;;;;;;;4987015;28;20082;-49
2023/04/02 07:28:35;;;;;;;9.13;3.58;;;;;;;;;;4990653;28;20487;-51
2023/04/02 07:31:02;;;;;;;8.38;3.92;;;;;;;;;;4990126;28;20055;-57
2023/04/02 07:33:36;;;;;;;15.18;4.50;;;;;;;;;;4989428;28;20058;-53
2023/04/02 07:36:03;;;;;;;7.03;2.83;;;;;;;;;;4989248;28;20142;-56
2023/04/02 07:38:30;;;;;;;11.82;3.50;;;;;;;;;;4992339;28;20058;-56
2023/04/02 07:41:05;;;;;;;5.18;2.88;;;;;;;;;;4988688;28;20057;-55
2023/04/02 07:43:32;;;;;;;6.13;1.73;;;;;;;;;;4990370;28;20090;-51
2023/04/02 07:45:59;;;;;;;6.78;2.92;;;;;;;;;;4983898;28;20065;-56
2023/04/02 07:48:34;;;;;;;5.72;1.83;;;;;;;;;;4981715;28;20059;-55
2023/04/02 07:51:04;;;;;;;;;;;;;;;;;;4987881;28;20429;-55
2023/04/02 07:53:40;;;;;;;5.63;1.58;;;;;;;;;;4977977;28;19925;-55
2023/04/02 07:56:07;;;;;;;3.78;1.65;;;;;;;;;;4987348;28;20399;-54
2023/04/02 07:58:35;;;;;;;4.25;1.70;;;;;;;;;;4990645;28;20050;-55
2023/04/02 08:01:19;;;;;;;2.08;1.15;;;;;;;;;;4991380;28;20149;-52
2023/04/02 08:03:47;;;;;;;2.80;0.90;;;;;;;;;;4987982;28;20053;-55
2023/04/02 08:06:21;;;;;;;3.80;1.20;;;;;;;;;;4991487;28;20061;-56
2023/04/02 08:08:49;;;;;;;3.42;1.40;;;;;;;;;;4989326;28;20064;-62
2023/04/02 08:11:16;;;;;;;5.00;1.52;;;;;;;;;;4967649;28;20148;-62
2023/04/02 08:13:50;;;;;;;5.82;1.55;;;;;;;;;;4988528;28;20058;-62
2023/04/02 08:16:18;;;;;;;6.78;1.33;;;;;;;;;;4991625;28;20054;-62
2023/04/02 08:18:52;;;;;;;7.25;1.40;;;;;;;;;;4988596;28;20057;-55
2023/04/02 08:21:25;;;;;;;3.72;0.98;;;;;;;;;;4986563;28;20046;-55
2023/04/02 08:24:00;;;;;;;3.40;1.15;;;;;;;;;;4982999;28;20146;-54
2023/04/02 08:26:35;;;;;;;2.97;1.10;;;;;;;;;;4986945;28;20064;-55
2023/04/02 08:29:11;;;;;;;2.03;1.48;;;;;;;;;;4987952;28;20046;-54
2023/04/02 08:31:45;;;;;;;1.23;0.63;;;;;;;;;;4987223;28;20140;-55
2023/04/02 08:34:25;;;;;;;2.25;0.95;;;;;;;;;;4984039;28;20516;-54
2023/04/02 08:37:00;;;;;;;2.58;0.90;;;;;;;;;;4982720;28;20045;-47
2023/04/02 08:39:31;;;;;;;4.40;1.25;;;;;;;;;;4987012;28;20249;-68
2023/04/02 08:41:58;;;;;;;3.05;1.00;;;;;;;;;;4985340;28;20154;-67
2023/04/02 08:44:39;;;;;;;2.70;1.13;;;;;;;;;;4990829;28;20085;-67
2023/04/02 08:47:07;;;;;;;3.20;1.10;;;;;;;;;;4986584;28;20082;-67
2023/04/02 08:49:44;;;;;;;5.80;1.10;;;;;;;;;;4989450;28;20482;-66
2023/04/02 08:52:23;;;;;;;6.05;1.30;;;;;;;;;;4973628;28;20049;-68
2023/04/02 08:54:59;;;;;;;5.90;1.00;;;;;;;;;;4986191;28;20085;-67
2023/04/02 08:57:32;;;;;;;2.67;0.90;;;;;;;;;;4983389;28;20755;-54
2023/04/02 09:00:25;;;;;;;1.08;0.60;;;;;;;;;;4987059;28;20060;-56
2023/04/02 09:02:55;;;;;;;1.60;0.90;;;;;;;;;;4982108;28;20055;-54
2023/04/02 09:05:31;;;;;;;3.47;0.90;;;;;;;;;;4987808;28;20141;-51
2023/04/02 09:08:01;;;;;;;1.85;0.82;;;;;;;;;;4984482;28;20470;-50
2023/04/02 09:10:44;;;;;;;1.17;0.73;;;;;;;;;;4988192;28;20409;-51
2023/04/02 09:13:17;;;;;;;1.75;0.70;;;;;;;;;;4978864;28;20054;-59
2023/04/02 09:15:55;;;;;;;3.25;0.93;;;;;;;;;;4985415;28;21751;-67
2023/04/02 09:18:22;;;;;;;1.08;0.70;;;;;;;;;;4989132;28;20521;-69
2023/04/02 09:20:50;;;;;;;2.00;0.80;;;;;;;;;;4982906;28;20069;-67
2023/04/02 09:23:30;;;;;;;5.20;1.30;;;;;;;;;;4986049;28;20502;-67
2023/04/02 09:26:17;;;;;;;3.67;0.93;;;;;;;;;;4984291;28;20058;-66
2023/04/02 09:28:45;;;;;;;2.08;0.90;;;;;;;;;;4986222;28;20138;-67
2023/04/02 09:31:21;;;;;;;3.30;1.58;;;;;;;;;;4986122;28;20088;-54
2023/04/02 09:33:50;;;;;;;5.00;1.42;;;;;;;;;;4987357;28;20506;-48
2023/04/02 09:36:32;;;;;;;4.78;1.42;;;;;;;;;;4989255;28;20066;-54
2023/04/02 09:39:19;;;;;;;5.68;1.35;;;;;;;;;;4989271;28;20086;-56
2023/04/02 09:41:47;;;;;;;3.10;1.05;;;;;;;;;;4986998;28;20137;-50
2023/04/02 09:44:32;;;;;;;1.63;0.95;;;;;;;;;;4983974;28;20141;-53
2023/04/02 09:47:02;;;;;;;;;;;;;;;;;;4988549;28;20054;-50
2023/04/02 09:49:37;;;;;;;1.13;0.50;;;;;;;;;;4987187;28;19929;-54
2023/04/02 09:52:06;;;;;;;1.58;0.70;;;;;;;;;;4984504;28;20109;-54
2023/04/02 09:54:43;;;;;;;1.42;0.80;;;;;;;;;;4983477;28;20054;-50
2023/04/02 09:57:23;;;;;;;1.30;0.70;;;;;;;;;;4980331;28;20059;-54
2023/04/02 10:00:17;;;;;;;2.08;0.88;;;;;;;;;;4978416;28;20049;-55
2023/04/02 10:03:02;;;;;;;2.05;1.17;;;;;;;;;;4981577;28;20478;-56
2023/04/02 10:05:36;;;;;;;2.10;0.85;;;;;;;;;;4955514;28;20058;-50
2023/04/02 10:08:27;;;;;;;2.47;0.63;;;;;;;;;;4981237;28;20088;-55
2023/04/02 10:11:02;;;;;;;2.97;0.90;;;;;;;;;;4978961;28;20108;-51
2023/04/02 10:13:33;;;;;;;1.63;0.90;;;;;;;;;;4982959;28;20650;-55
2023/04/02 10:16:03;;;;;;;2.92;0.77;;;;;;;;;;4980733;28;20065;-54
2023/04/02 10:18:52;;;;;;;5.72;1.05;;;;;;;;;;4982146;28;20082;-56
2023/04/02 10:21:23;;;;;;;2.58;0.80;;;;;;;;;;4983779;28;20054;-56
2023/04/02 10:23:58;;;;;;;2.50;1.58;;;;;;;;;;4986168;28;20064;-53
2023/04/02 10:26:35;;;;;;;1.35;0.68;;;;;;;;;;4982122;28;20213;-60
2023/04/02 10:29:24;;;;;;;6.20;1.13;;;;;;;;;;4984277;28;20113;-66
2023/04/02 10:31:57;;;;;;;2.65;0.95;;;;;;;;;;4983948;28;23175;-66
2023/04/02 10:34:35;;;;;;;1.02;0.50;;;;;;;;;;4987442;28;20054;-66
2023/04/02 10:37:12;;;;;;;1.38;0.90;;;;;;;;;;4979686;28;20081;-64
2023/04/02 10:39:49;;;;;;;2.47;0.73;;;;;;;;;;4982387;28;20050;-65
2023/04/02 10:42:21;;;;;;;1.08;0.63;;;;;;;;;;4986626;28;20054;-65
2023/04/02 10:45:15;;;;;;;5.30;1.17;;;;;;;;;;4983820;28;20065;-62
2023/04/02 10:47:52;;;;;;;1.77;0.70;;;;;;;;;;4974616;28;20053;-60
2023/04/02 10:50:23;;;;;;;1.23;0.90;;;;;;;;;;4978110;28;20054;-60
2023/04/02 10:53:00;;;;;;;3.33;0.93;;;;;;;;;;4981974;28;20207;-60
2023/04/02 10:55:33;;;;;;;5.05;2.17;;;;;;;;;;4986311;28;20137;-60
2023/04/02 10:58:14;;;;;;;5.75;2.63;;;;;;;;;;4984136;28;20085;-60
2023/04/02 11:00:43;;;;;;;4.93;1.90;;;;;;;;;;4979097;28;20058;-59
2023/04/02 11:03:35;;;;;;;5.28;1.95;;;;;;;;;;4989319;28;20046;-54
2023/04/02 11:06:12;;;;;;;5.30;1.83;;;;;;;;;;4987993;28;20066;-55
2023/04/02 11:08:49;;;;;;;1.90;1.15;;;;;;;;;;4978501;28;20065;-56
2023/04/02 11:11:18;;;;;;;3.92;1.42;;;;;;;;;;4983874;28;20054;-53
2023/04/02 11:13:48;;;;;;;2.38;1.15;;;;;;;;;;4987159;28;20058;-56
2023/04/02 11:16:22;;;;;;;2.75;1.15;;;;;;;;;;4986066;28;20092;-56
2023/04/02 11:19:08;;;;;;;1.38;0.90;;;;;;;;;;4988315;28;20045;-56
2023/04/02 11:21:55;;;;;;;4.15;1.05;;;;;;;;;;4985749;28;20062;-61
2023/04/02 11:24:32;;;;;;;1.77;0.93;;;;;;;;;;4995871;28;20053;-62
2023/04/02 11:27:07;;;;;;;2.42;0.95;;;;;;;;;;4980602;28;20056;-62
2023/04/02 11:29:35;;;;;;;3.60;1.23;;;;;;;;;;4984350;28;20077;-62
2023/04/02 11:32:28;;;;;;;3.92;1.10;;;;;;;;;;4983799;28;20053;-62
2023/04/02 11:34:56;;;;;;;1.90;0.90;;;;;;;;;;4991799;28;20058;-63
2023/04/02 11:37:44;;;;;;;3.80;1.23;;;;;;;;;;4983810;28;20064;-62
2023/04/02 11:40:12;;;;;;;2.90;1.10;;;;;;;;;;4985676;28;20085;-55
2023/04/02 11:42:49;;;;;;;3.58;0.82;;;;;;;;;;4988152;28;20062;-57
2023/04/02 11:45:20;;;;;;;2.08;0.90;;;;;;;;;;4984495;28;20050;-56
2023/04/02 11:48:17;;;;;;;1.95;0.80;;;;;;;;;;4983886;28;20163;-56
2023/04/02 11:50:45;;;;;;;1.75;0.95;;;;;;;;;;4979459;28;20058;-59
2023/04/02 11:53:21;;;;;;;1.98;0.80;;;;;;;;;;4986473;28;20089;-52
2023/04/02 11:55:51;;;;;;;2.97;0.85;;;;;;;;;;4983792;28;20108;-58
2023/04/02 11:58:44;;;;;;;2.35;0.68;;;;;;;;;;4980148;28;20058;-56
2023/04/02 12:01:13;;;;;;;1.35;0.70;;;;;;;;;;4972342;28;20730;-55
2023/04/02 12:03:47;;;;;;;2.20;0.68;;;;;;;;;;4982754;28;20058;-55
2023/04/02 12:06:29;;;;;;;2.03;0.90;;;;;;;;;;4986946;28;20587;-55
2023/04/02 12:09:04;;;;;;;;;;;;;;;;;;4979284;28;20056;-57
2023/04/02 12:11:36;;;;;;;3.58;0.85;;;;;;;;;;4981046;28;20000;-54
2023/04/02 12:14:29;;;;;;;1.80;0.82;;;;;;;;;;4984015;28;20504;-58
2023/04/02 12:16:58;;;;;;;1.52;0.82;;;;;;;;;;4982516;28;20144;-62
2023/04/02 12:19:36;;;;;;;1.88;0.65;;;;;;;;;;4976936;28;20513;-58
2023/04/02 12:22:17;;;;;;;4.43;0.88;;;;;;;;;;4974062;28;20050;-58
2023/04/02 12:24:54;;;;;;;1.60;1.02;;;;;;;;;;4979168;28;20429;-57
2023/04/02 12:27:26;;;;;;;3.58;1.00;;;;;;;;;;4982264;28;20050;-58
2023/04/02 12:30:20;;;;;;;4.13;1.05;;;;;;;;;;4975579;28;20050;-58
2023/04/02 12:32:48;;;;;;;3.22;1.05;;;;;;;;;;4984222;28;20142;-57
2023/04/02 12:35:35;;;;;;;2.63;1.17;;;;;;;;;;4985223;28;20058;-62
2023/04/02 12:38:02;;;;;;;2.42;0.90;;;;;;;;;;4973022;28;20112;-61
2023/04/02 12:40:36;;;;;;;4.75;1.50;;;;;;;;;;4982855;28;20528;-61
2023/04/02 12:43:23;;;;;;;2.45;1.08;;;;;;;;;;4981170;28;20067;-61
2023/04/02 12:46:07;;;;;;;2.10;1.25;;;;;;;;;;4980942;28;21458;-58
2023/04/02 12:48:35;;;;;;;3.65;1.15;;;;;;;;;;4980235;28;20073;-64
2023/04/02 12:51:09;;;;;;;2.70;0.90;;;;;;;;;;4976908;28;20058;-65
2023/04/02 12:53:38;;;;;;;1.83;0.60;;;;;;;;;;4982341;28;20051;-64
2023/04/02 12:56:07;;;;;;;1.75;0.80;;;;;;;;;;4976261;28;20074;-64
2023/04/02 12:58:41;;;;;;;2.05;1.00;;;;;;;;;;4973398;28;21222;-65
2023/04/02 13:01:12;;;;;;;3.47;1.20;;;;;;;;;;4977882;28;20498;-65
2023/04/02 13:04:05;;;;;;;2.40;1.08;;;;;;;;;;4973416;28;21354;-65
2023/04/02 13:06:36;;;;;;;1.88;0.65;;;;;;;;;;4979858;28;20060;-64
2023/04/02 13:09:28;;;;;;;3.17;1.17;;;;;;;;;;4982480;28;20050;-65
2023/04/02 13:11:55;;;;;;;3.53;1.20;;;;;;;;;;4980646;28;20072;-65
2023/04/02 13:14:29;;;;;;;1.20;0.73;;;;;;;;;;4975914;28;20116;-61
2023/04/02 13:16:56;;;;;;;;;;;;;;;;;;4973069;28;20055;-55
2023/04/02 13:19:24;;;;;;;2.90;0.80;;;;;;;;;;4973804;28;19955;-55
2023/04/02 13:22:08;;;;;;;2.58;0.75;;;;;;;;;;4978165;28;20060;-59
2023/04/02 13:24:35;;;;;;;1.55;0.88;;;;;;;;;;4984240;28;20064;-59
2023/04/02 13:27:09;;;;;;;2.28;0.93;;;;;;;;;;4981291;28;20050;-58
2023/04/02 13:29:36;;;;;;;4.75;0.90;;;;;;;;;;4978720;28;20430;-59
2023/04/02 13:32:12;;;;;;;4.32;1.13;;;;;;;;;;4983855;28;20062;-55
2023/04/02 13:34:39;;;;;;;1.17;0.75;;;;;;;;;;4979855;28;20066;-63
2023/04/02 13:37:13;;;;;;;3.58;1.20;;;;;;;;;;4983514;28;20061;-63
2023/04/02 13:39:40;;;;;;;1.13;0.82;;;;;;;;;;4979972;28;20061;-63
2023/04/02 13:42:11;;;;;;;2.67;1.25;;;;;;;;;;4977311;28;20057;-63
2023/04/02 13:44:46;;;;;;;2.05;1.00;;;;;;;;;;4978743;28;20062;-63
2023/04/02 13:47:20;;;;;;;3.38;0.82;;;;;;;;;;4986760;28;20732;-62
2023/04/02 13:49:54;;;;;;;2.50;0.98;;;;;;;;;;4978936;28;20058;-61
2023/04/02 13:52:21;;;;;;;2.75;1.10;;;;;;;;;;4981368;28;20061;-53
2023/04/02 13:55:00;;;;;;;1.77;0.65;;;;;;;;;;4981553;28;20061;-60
2023/04/02 13:57:34;;;;;;;3.33;1.08;;;;;;;;;;4984185;28;20068;-61
2023/04/02 14:00:10;;;;;;;2.35;0.85;;;;;;;;;;4983832;28;20665;-61
2023/04/02 14:02:45;;;;;;;2.65;1.00;;;;;;;;;;4984797;28;20058;-61
2023/04/02 14:05:25;;;;;;;1.70;0.75;;;;;;;;;;4984319;28;20078;-60
2023/04/02 14:07:58;;;;;;;1.27;0.88;;;;;;;;;;4983594;28;20664;-64
2023/04/02 14:10:50;;;;;;;0.73;0.50;;;;;;;;;;4981500;28;20144;-56
2023/04/02 14:13:45;;;;;;;1.58;0.50;;;;;;;;;;4984844;28;20137;-60
2023/04/02 14:16:31;;;;;;;2.03;1.05;;;;;;;;;;4987458;28;20168;-60
2023/04/02 14:19:05;;;;;;;1.88;0.63;;;;;;;;;;4986413;28;20583;-61
2023/04/02 14:21:46;;;;;;;2.25;0.90;;;;;;;;;;4985366;28;20058;-61
2023/04/02 14:24:18;;;;;;;1.67;0.80;;;;;;;;;;4991384;28;20050;-60
2023/04/02 14:27:02;;;;;;;2.20;1.00;;;;;;;;;;4988189;28;20142;-51
2023/04/02 14:29:37;;;;;;;2.42;0.85;;;;;;;;;;4982731;28;20077;-54
2023/04/02 14:32:15;;;;;;;2.83;0.90;;;;;;;;;;4987648;28;20065;-52
2023/04/02 14:34:49;;;;;;;2.67;0.80;;;;;;;;;;4986614;28;20054;-55
2023/04/02 14:37:29;;;;;;;4.32;1.20;;;;;;;;;;4981116;28;20483;-60
2023/04/02 14:40:03;;;;;;;2.28;1.05;;;;;;;;;;4983932;28;20580;-60
2023/04/02 14:42:37;;;;;;;1.73;0.85;;;;;;;;;;4975146;28;20480;-60
2023/04/02 14:45:11;;;;;;;1.25;0.85;;;;;;;;;;4981973;28;20061;-60
2023/04/02 14:47:47;;;;;;;2.90;0.70;;;;;;;;;;4978381;28;20588;-60
2023/04/02 14:50:33;;;;;;;1.63;0.73;;;;;;;;;;4990317;28;20054;-60
2023/04/02 14:53:02;;;;;;;1.98;0.75;;;;;;;;;;4985227;28;20050;-60
2023/04/02 14:55:42;;;;;;;2.22;0.80;;;;;;;;;;4984451;28;20050;-59
2023/04/02 14:58:15;;;;;;;1.52;1.20;;;;;;;;;;4986755;28;20183;-57
2023/04/02 15:00:56;;;;;;;0.90;0.50;;;;;;;;;;4987549;28;20046;-54
2023/04/02 15:03:28;;;;;;;1.17;0.63;;;;;;;;;;4984939;28;20054;-54
2023/04/02 15:06:05;;;;;;;2.60;0.90;;;;;;;;;;4992079;28;20663;-57
2023/04/02 15:08:51;;;;;;;1.40;0.70;;;;;;;;;;4988243;28;20058;-57
2023/04/02 15:11:37;;;;;;;2.95;0.63;;;;;;;;;;4985676;28;20045;-58
2023/04/02 15:14:23;;;;;;;1.33;0.77;;;;;;;;;;4984779;28;20133;-55
2023/04/02 15:16:57;;;;;;;1.27;0.60;;;;;;;;;;4984532;28;20689;-59
2023/04/02 15:19:24;;;;;;;1.65;0.82;;;;;;;;;;4987359;28;20440;-58
2023/04/02 15:22:05;;;;;;;0.73;0.50;;;;;;;;;;4981794;28;20069;-55
2023/04/02 15:24:42;;;;;;;2.42;0.85;;;;;;;;;;4987692;28;20055;-55
2023/04/02 15:27:49;;;;;;;2.15;0.60;;;;;;;;;;4990078;28;20073;-57
2023/04/02 15:30:33;;;;;;;1.63;0.65;;;;;;;;;;4984398;28;20046;-56
2023/04/02 15:33:20;;;;;;;1.92;0.50;;;;;;;;;;4986031;28;20479;-62
2023/04/02 15:35:54;;;;;;;1.15;0.75;;;;;;;;;;4988119;28;20057;-62
2023/04/02 15:38:27;;;;;;;2.55;0.82;;;;;;;;;;4984424;28;20070;-61